sensor_id;sensor_type;location;lat;lon;timestamp;P1;durP1;ratioP1;P2;durP2;ratioP2
15476;SDS011;7840;42.702;23.296;2022-08-21T00:01:35;20.95;;;18.42;;
15476;SDS011;7840;42.702;23.296;2022-08-21T00:04:03;22.70;;;17.88;;
15476;SDS011;7840;42.702;23.296;2022-08-21T00:06:32;25.45;;;18.63;;
15476;SDS011;7840;42.702;23.296;2022-08-21T00:09:03;22.60;;;18.30;;
15476;SDS011;7840;42.702;23.296;2022-08-21T00:11:36;22.73;;;19.42;;
15476;SDS011;7840;42.702;23.296;2022-08-21T00:14:06;23.88;;;19.55;;
15476;SDS011;7840;42.702;23.296;2022-08-21T00:16:36;23.60;;;18.83;;
15476;SDS011;7840;42.702;23.296;2022-08-21T00:19:03;21.42;;;19.27;;
15476;SDS011;7840;42.702;23.296;2022-08-21T00:21:32;23.08;;;19.20;;
15476;SDS011;7840;42.702;23.296;2022-08-21T00:24:00;22.85;;;19.48;;
15476;SDS011;7840;42.702;23.296;2022-08-21T00:26:28;20.17;;;18.00;;
15476;SDS011;7840;42.702;23.296;2022-08-21T00:28:55;26.55;;;19.95;;
15476;SDS011;7840;42.702;23.296;2022-08-21T00:31:24;21.95;;;17.95;;
15476;SDS011;7840;42.702;23.296;2022-08-21T00:33:52;22.90;;;17.90;;
15476;SDS011;7840;42.702;23.296;2022-08-21T00:36:19;24.95;;;18.63;;
15476;SDS011;7840;42.702;23.296;2022-08-21T00:38:47;23.52;;;19.00;;
15476;SDS011;7840;42.702;23.296;2022-08-21T00:41:14;23.05;;;18.35;;
15476;SDS011;7840;42.702;23.296;2022-08-21T00:43:42;27.10;;;18.45;;
15476;SDS011;7840;42.702;23.296;2022-08-21T00:46:10;22.73;;;19.75;;
15476;SDS011;7840;42.702;23.296;2022-08-21T00:48:39;23.75;;;20.52;;
15476;SDS011;7840;42.702;23.296;2022-08-21T00:51:07;33.78;;;22.15;;
15476;SDS011;7840;42.702;23.296;2022-08-21T00:53:39;27.55;;;21.80;;
15476;SDS011;7840;42.702;23.296;2022-08-21T00:56:10;26.65;;;20.73;;
15476;SDS011;7840;42.702;23.296;2022-08-21T00:58:39;26.20;;;20.33;;
15476;SDS011;7840;42.702;23.296;2022-08-21T01:01:09;24.45;;;20.30;;
15476;SDS011;7840;42.702;23.296;2022-08-21T01:03:36;26.85;;;20.75;;
15476;SDS011;7840;42.702;23.296;2022-08-21T01:06:06;27.25;;;20.45;;
15476;SDS011;7840;42.702;23.296;2022-08-21T01:08:34;25.90;;;20.23;;
15476;SDS011;7840;42.702;23.296;2022-08-21T01:11:03;26.75;;;20.02;;
15476;SDS011;7840;42.702;23.296;2022-08-21T01:13:32;23.10;;;18.58;;
15476;SDS011;7840;42.702;23.296;2022-08-21T01:16:02;27.17;;;17.40;;
15476;SDS011;7840;42.702;23.296;2022-08-21T01:18:34;25.35;;;17.98;;
15476;SDS011;7840;42.702;23.296;2022-08-21T01:21:07;21.75;;;17.77;;
15476;SDS011;7840;42.702;23.296;2022-08-21T01:23:36;23.02;;;17.33;;
15476;SDS011;7840;42.702;23.296;2022-08-21T01:26:07;21.50;;;16.35;;
15476;SDS011;7840;42.702;23.296;2022-08-21T01:28:36;20.05;;;15.57;;
15476;SDS011;7840;42.702;23.296;2022-08-21T01:31:08;16.85;;;14.45;;
15476;SDS011;7840;42.702;23.296;2022-08-21T01:33:39;17.45;;;15.10;;
15476;SDS011;7840;42.702;23.296;2022-08-21T01:36:08;17.33;;;15.13;;
15476;SDS011;7840;42.702;23.296;2022-08-21T01:38:36;20.83;;;15.73;;
15476;SDS011;7840;42.702;23.296;2022-08-21T01:41:03;18.83;;;14.93;;
15476;SDS011;7840;42.702;23.296;2022-08-21T01:43:31;19.60;;;15.15;;
15476;SDS011;7840;42.702;23.296;2022-08-21T01:45:58;16.40;;;14.70;;
15476;SDS011;7840;42.702;23.296;2022-08-21T01:48:26;18.08;;;14.00;;
15476;SDS011;7840;42.702;23.296;2022-08-21T01:50:54;18.15;;;15.95;;
15476;SDS011;7840;42.702;23.296;2022-08-21T01:53:23;19.83;;;16.15;;
15476;SDS011;7840;42.702;23.296;2022-08-21T01:55:51;23.42;;;19.58;;
15476;SDS011;7840;42.702;23.296;2022-08-21T01:58:18;21.85;;;17.75;;
15476;SDS011;7840;42.702;23.296;2022-08-21T02:00:46;21.42;;;17.23;;
15476;SDS011;7840;42.702;23.296;2022-08-21T02:03:14;21.70;;;16.10;;
15476;SDS011;7840;42.702;23.296;2022-08-21T02:05:42;15.85;;;12.35;;
15476;SDS011;7840;42.702;23.296;2022-08-21T02:08:10;12.93;;;11.60;;
15476;SDS011;7840;42.702;23.296;2022-08-21T02:10:39;15.25;;;12.10;;
15476;SDS011;7840;42.702;23.296;2022-08-21T02:13:07;12.48;;;11.13;;
15476;SDS011;7840;42.702;23.296;2022-08-21T02:15:35;16.05;;;11.63;;
15476;SDS011;7840;42.702;23.296;2022-08-21T02:18:04;13.40;;;11.63;;
15476;SDS011;7840;42.702;23.296;2022-08-21T02:20:33;14.52;;;11.20;;
15476;SDS011;7840;42.702;23.296;2022-08-21T02:23:03;13.20;;;11.90;;
15476;SDS011;7840;42.702;23.296;2022-08-21T02:25:31;14.27;;;10.88;;
15476;SDS011;7840;42.702;23.296;2022-08-21T02:28:02;13.82;;;10.27;;
15476;SDS011;7840;42.702;23.296;2022-08-21T02:30:35;13.02;;;11.15;;
15476;SDS011;7840;42.702;23.296;2022-08-21T02:33:05;13.63;;;11.18;;
15476;SDS011;7840;42.702;23.296;2022-08-21T02:35:35;11.93;;;10.70;;
15476;SDS011;7840;42.702;23.296;2022-08-21T02:38:03;10.98;;;9.88;;
15476;SDS011;7840;42.702;23.296;2022-08-21T02:40:45;11.55;;;9.05;;
15476;SDS011;7840;42.702;23.296;2022-08-21T02:43:16;11.23;;;9.43;;
15476;SDS011;7840;42.702;23.296;2022-08-21T02:45:46;13.10;;;9.13;;
15476;SDS011;7840;42.702;23.296;2022-08-21T02:48:15;10.40;;;9.30;;
15476;SDS011;7840;42.702;23.296;2022-08-21T02:50:46;14.48;;;10.30;;
15476;SDS011;7840;42.702;23.296;2022-08-21T02:53:18;11.98;;;10.77;;
15476;SDS011;7840;42.702;23.296;2022-08-21T02:55:50;14.27;;;11.82;;
15476;SDS011;7840;42.702;23.296;2022-08-21T02:58:22;12.77;;;10.80;;
15476;SDS011;7840;42.702;23.296;2022-08-21T03:00:52;13.38;;;11.23;;
15476;SDS011;7840;42.702;23.296;2022-08-21T03:03:20;14.30;;;11.70;;
15476;SDS011;7840;42.702;23.296;2022-08-21T03:05:47;15.45;;;11.65;;
15476;SDS011;7840;42.702;23.296;2022-08-21T03:08:15;13.48;;;11.57;;
15476;SDS011;7840;42.702;23.296;2022-08-21T03:10:44;14.45;;;11.02;;
15476;SDS011;7840;42.702;23.296;2022-08-21T03:13:13;15.32;;;12.15;;
15476;SDS011;7840;42.702;23.296;2022-08-21T03:15:44;16.75;;;12.63;;
15476;SDS011;7840;42.702;23.296;2022-08-21T03:18:12;17.58;;;12.85;;
15476;SDS011;7840;42.702;23.296;2022-08-21T03:20:40;13.82;;;11.80;;
15476;SDS011;7840;42.702;23.296;2022-08-21T03:23:10;15.13;;;12.32;;
15476;SDS011;7840;42.702;23.296;2022-08-21T03:25:38;13.93;;;12.38;;
15476;SDS011;7840;42.702;23.296;2022-08-21T03:28:07;16.90;;;12.25;;
15476;SDS011;7840;42.702;23.296;2022-08-21T03:30:36;15.05;;;12.30;;
15476;SDS011;7840;42.702;23.296;2022-08-21T03:33:05;15.80;;;11.85;;
15476;SDS011;7840;42.702;23.296;2022-08-21T03:35:32;13.90;;;12.48;;
15476;SDS011;7840;42.702;23.296;2022-08-21T03:38:00;14.98;;;13.18;;
15476;SDS011;7840;42.702;23.296;2022-08-21T03:40:28;22.38;;;15.43;;
15476;SDS011;7840;42.702;23.296;2022-08-21T03:42:55;21.98;;;16.65;;
15476;SDS011;7840;42.702;23.296;2022-08-21T03:45:24;24.13;;;19.33;;
15476;SDS011;7840;42.702;23.296;2022-08-21T03:47:52;25.05;;;19.38;;
15476;SDS011;7840;42.702;23.296;2022-08-21T03:50:20;26.33;;;21.40;;
15476;SDS011;7840;42.702;23.296;2022-08-21T03:52:47;28.65;;;21.65;;
15476;SDS011;7840;42.702;23.296;2022-08-21T03:55:15;27.10;;;22.27;;
15476;SDS011;7840;42.702;23.296;2022-08-21T03:57:43;26.05;;;21.77;;
15476;SDS011;7840;42.702;23.296;2022-08-21T04:00:14;24.67;;;20.50;;
15476;SDS011;7840;42.702;23.296;2022-08-21T04:02:47;21.52;;;19.30;;
15476;SDS011;7840;42.702;23.296;2022-08-21T04:05:16;24.58;;;19.00;;
15476;SDS011;7840;42.702;23.296;2022-08-21T04:07:54;21.33;;;18.27;;
15476;SDS011;7840;42.702;23.296;2022-08-21T04:10:27;21.35;;;18.20;;
15476;SDS011;7840;42.702;23.296;2022-08-21T04:12:56;23.17;;;19.23;;
15476;SDS011;7840;42.702;23.296;2022-08-21T04:15:24;24.63;;;22.00;;
15476;SDS011;7840;42.702;23.296;2022-08-21T04:17:53;26.17;;;21.98;;
15476;SDS011;7840;42.702;23.296;2022-08-21T04:20:21;28.63;;;22.58;;
15476;SDS011;7840;42.702;23.296;2022-08-21T04:22:50;30.25;;;23.58;;
15476;SDS011;7840;42.702;23.296;2022-08-21T04:25:20;30.25;;;23.23;;
15476;SDS011;7840;42.702;23.296;2022-08-21T04:27:50;25.92;;;22.50;;
15476;SDS011;7840;42.702;23.296;2022-08-21T04:30:21;25.65;;;21.15;;
15476;SDS011;7840;42.702;23.296;2022-08-21T04:32:54;28.75;;;24.13;;
15476;SDS011;7840;42.702;23.296;2022-08-21T04:35:36;24.40;;;21.48;;
15476;SDS011;7840;42.702;23.296;2022-08-21T04:38:05;24.50;;;20.90;;
15476;SDS011;7840;42.702;23.296;2022-08-21T04:40:34;27.02;;;21.73;;
15476;SDS011;7840;42.702;23.296;2022-08-21T04:43:03;24.38;;;20.08;;
15476;SDS011;7840;42.702;23.296;2022-08-21T04:45:32;25.00;;;19.10;;
15476;SDS011;7840;42.702;23.296;2022-08-21T04:48:03;20.15;;;17.55;;
15476;SDS011;7840;42.702;23.296;2022-08-21T04:50:29;19.13;;;17.23;;
15476;SDS011;7840;42.702;23.296;2022-08-21T04:53:04;21.17;;;16.75;;
15476;SDS011;7840;42.702;23.296;2022-08-21T04:55:35;18.50;;;13.73;;
15476;SDS011;7840;42.702;23.296;2022-08-21T04:58:03;12.60;;;11.07;;
15476;SDS011;7840;42.702;23.296;2022-08-21T05:00:32;12.63;;;9.85;;
15476;SDS011;7840;42.702;23.296;2022-08-21T05:02:59;12.57;;;10.10;;
15476;SDS011;7840;42.702;23.296;2022-08-21T05:05:32;10.95;;;9.55;;
15476;SDS011;7840;42.702;23.296;2022-08-21T05:08:01;14.13;;;9.82;;
15476;SDS011;7840;42.702;23.296;2022-08-21T05:10:36;13.63;;;9.40;;
15476;SDS011;7840;42.702;23.296;2022-08-21T05:13:05;10.93;;;9.40;;
15476;SDS011;7840;42.702;23.296;2022-08-21T05:15:36;13.50;;;9.57;;
15476;SDS011;7840;42.702;23.296;2022-08-21T05:18:04;10.18;;;9.02;;
15476;SDS011;7840;42.702;23.296;2022-08-21T05:20:30;12.63;;;8.35;;
15476;SDS011;7840;42.702;23.296;2022-08-21T05:22:59;11.45;;;8.70;;
15476;SDS011;7840;42.702;23.296;2022-08-21T05:25:28;10.13;;;8.43;;
15476;SDS011;7840;42.702;23.296;2022-08-21T05:27:57;10.40;;;8.38;;
15476;SDS011;7840;42.702;23.296;2022-08-21T05:30:24;10.35;;;8.82;;
15476;SDS011;7840;42.702;23.296;2022-08-21T05:32:55;12.55;;;9.60;;
15476;SDS011;7840;42.702;23.296;2022-08-21T05:35:24;11.25;;;9.45;;
15476;SDS011;7840;42.702;23.296;2022-08-21T05:37:52;12.60;;;9.85;;
15476;SDS011;7840;42.702;23.296;2022-08-21T05:40:23;12.85;;;10.98;;
15476;SDS011;7840;42.702;23.296;2022-08-21T05:42:51;10.55;;;9.43;;
15476;SDS011;7840;42.702;23.296;2022-08-21T05:45:22;10.50;;;9.50;;
15476;SDS011;7840;42.702;23.296;2022-08-21T05:47:51;11.75;;;10.10;;
15476;SDS011;7840;42.702;23.296;2022-08-21T05:50:18;12.60;;;10.02;;
15476;SDS011;7840;42.702;23.296;2022-08-21T05:52:46;15.55;;;10.32;;
15476;SDS011;7840;42.702;23.296;2022-08-21T05:55:15;13.32;;;11.85;;
15476;SDS011;7840;42.702;23.296;2022-08-21T05:57:43;16.13;;;12.35;;
15476;SDS011;7840;42.702;23.296;2022-08-21T06:00:11;13.27;;;11.93;;
15476;SDS011;7840;42.702;23.296;2022-08-21T06:02:41;15.45;;;11.75;;
15476;SDS011;7840;42.702;23.296;2022-08-21T06:05:08;15.95;;;12.32;;
15476;SDS011;7840;42.702;23.296;2022-08-21T06:07:36;13.65;;;12.25;;
15476;SDS011;7840;42.702;23.296;2022-08-21T06:10:09;15.73;;;11.73;;
15476;SDS011;7840;42.702;23.296;2022-08-21T06:12:37;14.85;;;12.80;;
15476;SDS011;7840;42.702;23.296;2022-08-21T06:15:21;13.07;;;11.75;;
15476;SDS011;7840;42.702;23.296;2022-08-21T06:17:53;13.68;;;12.27;;
15476;SDS011;7840;42.702;23.296;2022-08-21T06:20:21;15.38;;;12.10;;
15476;SDS011;7840;42.702;23.296;2022-08-21T06:22:49;14.93;;;13.00;;
15476;SDS011;7840;42.702;23.296;2022-08-21T06:25:17;13.75;;;12.43;;
15476;SDS011;7840;42.702;23.296;2022-08-21T06:27:44;15.88;;;14.27;;
15476;SDS011;7840;42.702;23.296;2022-08-21T06:30:12;17.70;;;15.77;;
15476;SDS011;7840;42.702;23.296;2022-08-21T06:32:40;15.20;;;13.63;;
15476;SDS011;7840;42.702;23.296;2022-08-21T06:35:11;15.63;;;14.00;;
15476;SDS011;7840;42.702;23.296;2022-08-21T06:37:41;17.63;;;14.65;;
15476;SDS011;7840;42.702;23.296;2022-08-21T06:40:09;17.27;;;13.18;;
15476;SDS011;7840;42.702;23.296;2022-08-21T06:42:41;13.20;;;11.38;;
15476;SDS011;7840;42.702;23.296;2022-08-21T06:45:09;13.02;;;11.70;;
15476;SDS011;7840;42.702;23.296;2022-08-21T06:47:37;13.13;;;11.20;;
15476;SDS011;7840;42.702;23.296;2022-08-21T06:50:06;15.75;;;10.30;;
15476;SDS011;7840;42.702;23.296;2022-08-21T06:52:36;12.57;;;10.00;;
15476;SDS011;7840;42.702;23.296;2022-08-21T06:55:05;16.00;;;14.32;;
15476;SDS011;7840;42.702;23.296;2022-08-21T06:57:34;16.70;;;15.00;;
15476;SDS011;7840;42.702;23.296;2022-08-21T07:00:03;20.77;;;15.32;;
15476;SDS011;7840;42.702;23.296;2022-08-21T07:02:33;15.77;;;14.35;;
15476;SDS011;7840;42.702;23.296;2022-08-21T07:05:02;15.82;;;13.95;;
15476;SDS011;7840;42.702;23.296;2022-08-21T07:07:30;16.67;;;14.95;;
15476;SDS011;7840;42.702;23.296;2022-08-21T07:10:02;14.95;;;13.50;;
15476;SDS011;7840;42.702;23.296;2022-08-21T07:12:30;16.45;;;13.60;;
15476;SDS011;7840;42.702;23.296;2022-08-21T07:14:58;14.60;;;12.98;;
15476;SDS011;7840;42.702;23.296;2022-08-21T07:17:29;14.77;;;13.25;;
15476;SDS011;7840;42.702;23.296;2022-08-21T07:19:56;13.57;;;11.57;;
15476;SDS011;7840;42.702;23.296;2022-08-21T07:22:24;16.35;;;12.00;;
15476;SDS011;7840;42.702;23.296;2022-08-21T07:24:53;18.35;;;13.52;;
15476;SDS011;7840;42.702;23.296;2022-08-21T07:27:22;15.40;;;13.98;;
15476;SDS011;7840;42.702;23.296;2022-08-21T07:29:50;16.60;;;13.38;;
15476;SDS011;7840;42.702;23.296;2022-08-21T07:32:17;13.77;;;12.48;;
15476;SDS011;7840;42.702;23.296;2022-08-21T07:34:45;13.27;;;11.98;;
15476;SDS011;7840;42.702;23.296;2022-08-21T07:37:12;14.18;;;12.68;;
15476;SDS011;7840;42.702;23.296;2022-08-21T07:39:40;20.70;;;18.48;;
15476;SDS011;7840;42.702;23.296;2022-08-21T07:42:09;14.13;;;11.10;;
15476;SDS011;7840;42.702;23.296;2022-08-21T07:44:38;13.98;;;11.55;;
15476;SDS011;7840;42.702;23.296;2022-08-21T07:47:06;11.18;;;10.18;;
15476;SDS011;7840;42.702;23.296;2022-08-21T07:49:33;12.25;;;10.23;;
15476;SDS011;7840;42.702;23.296;2022-08-21T07:52:01;15.13;;;11.50;;
15476;SDS011;7840;42.702;23.296;2022-08-21T07:54:43;12.30;;;11.05;;
15476;SDS011;7840;42.702;23.296;2022-08-21T07:57:11;11.85;;;10.65;;
15476;SDS011;7840;42.702;23.296;2022-08-21T07:59:40;14.18;;;11.68;;
15476;SDS011;7840;42.702;23.296;2022-08-21T08:02:13;12.68;;;11.25;;
15476;SDS011;7840;42.702;23.296;2022-08-21T08:04:49;13.45;;;12.02;;
15476;SDS011;7840;42.702;23.296;2022-08-21T08:07:16;13.70;;;12.40;;
15476;SDS011;7840;42.702;23.296;2022-08-21T08:09:44;15.68;;;11.13;;
15476;SDS011;7840;42.702;23.296;2022-08-21T08:12:12;16.65;;;10.27;;
15476;SDS011;7840;42.702;23.296;2022-08-21T08:14:41;11.90;;;9.70;;
15476;SDS011;7840;42.702;23.296;2022-08-21T08:17:09;12.40;;;10.73;;
15476;SDS011;7840;42.702;23.296;2022-08-21T08:19:38;12.02;;;9.68;;
15476;SDS011;7840;42.702;23.296;2022-08-21T08:22:12;12.27;;;11.07;;
15476;SDS011;7840;42.702;23.296;2022-08-21T08:24:40;13.30;;;10.43;;
15476;SDS011;7840;42.702;23.296;2022-08-21T08:27:08;11.65;;;10.52;;
15476;SDS011;7840;42.702;23.296;2022-08-21T08:29:35;12.77;;;10.90;;
15476;SDS011;7840;42.702;23.296;2022-08-21T08:32:05;12.25;;;10.43;;
15476;SDS011;7840;42.702;23.296;2022-08-21T08:34:33;12.23;;;10.93;;
15476;SDS011;7840;42.702;23.296;2022-08-21T08:37:01;11.60;;;10.38;;
15476;SDS011;7840;42.702;23.296;2022-08-21T08:39:30;17.42;;;10.23;;
15476;SDS011;7840;42.702;23.296;2022-08-21T08:41:59;12.32;;;9.45;;
15476;SDS011;7840;42.702;23.296;2022-08-21T08:44:32;13.90;;;9.05;;
15476;SDS011;7840;42.702;23.296;2022-08-21T08:47:03;14.13;;;9.80;;
15476;SDS011;7840;42.702;23.296;2022-08-21T08:49:34;11.77;;;8.77;;
15476;SDS011;7840;42.702;23.296;2022-08-21T08:52:07;11.75;;;10.07;;
15476;SDS011;7840;42.702;23.296;2022-08-21T08:54:43;13.15;;;8.88;;
15476;SDS011;7840;42.702;23.296;2022-08-21T08:57:16;11.68;;;8.13;;
15476;SDS011;7840;42.702;23.296;2022-08-21T08:59:46;10.55;;;7.88;;
15476;SDS011;7840;42.702;23.296;2022-08-21T09:02:18;8.88;;;8.07;;
15476;SDS011;7840;42.702;23.296;2022-08-21T09:04:50;10.38;;;7.97;;
15476;SDS011;7840;42.702;23.296;2022-08-21T09:07:20;11.18;;;8.13;;
15476;SDS011;7840;42.702;23.296;2022-08-21T09:10:10;11.35;;;8.02;;
15476;SDS011;7840;42.702;23.296;2022-08-21T09:12:45;10.70;;;7.40;;
15476;SDS011;7840;42.702;23.296;2022-08-21T09:15:24;12.02;;;7.95;;
15476;SDS011;7840;42.702;23.296;2022-08-21T09:18:02;9.15;;;6.88;;
15476;SDS011;7840;42.702;23.296;2022-08-21T09:20:53;12.35;;;7.10;;
15476;SDS011;7840;42.702;23.296;2022-08-21T09:23:36;9.40;;;6.85;;
15476;SDS011;7840;42.702;23.296;2022-08-21T09:26:17;12.25;;;6.80;;
15476;SDS011;7840;42.702;23.296;2022-08-21T09:28:47;10.13;;;6.38;;
15476;SDS011;7840;42.702;23.296;2022-08-21T09:31:22;10.50;;;6.80;;
15476;SDS011;7840;42.702;23.296;2022-08-21T09:33:58;11.68;;;6.47;;
15476;SDS011;7840;42.702;23.296;2022-08-21T09:36:29;11.02;;;7.25;;
15476;SDS011;7840;42.702;23.296;2022-08-21T09:39:03;15.35;;;6.35;;
15476;SDS011;7840;42.702;23.296;2022-08-21T09:41:32;8.50;;;6.63;;
15476;SDS011;7840;42.702;23.296;2022-08-21T09:44:07;13.45;;;7.43;;
15476;SDS011;7840;42.702;23.296;2022-08-21T09:46:35;12.75;;;6.82;;
15476;SDS011;7840;42.702;23.296;2022-08-21T09:49:25;7.43;;;5.57;;
15476;SDS011;7840;42.702;23.296;2022-08-21T09:51:54;11.38;;;6.20;;
15476;SDS011;7840;42.702;23.296;2022-08-21T09:54:24;9.88;;;5.90;;
15476;SDS011;7840;42.702;23.296;2022-08-21T09:56:57;8.35;;;5.70;;
15476;SDS011;7840;42.702;23.296;2022-08-21T09:59:52;13.43;;;6.47;;
15476;SDS011;7840;42.702;23.296;2022-08-21T10:02:26;8.25;;;6.35;;
15476;SDS011;7840;42.702;23.296;2022-08-21T10:04:57;10.50;;;7.32;;
15476;SDS011;7840;42.702;23.296;2022-08-21T10:07:27;12.18;;;5.50;;
15476;SDS011;7840;42.702;23.296;2022-08-21T10:10:00;10.00;;;4.72;;
15476;SDS011;7840;42.702;23.296;2022-08-21T10:12:33;6.97;;;4.60;;
15476;SDS011;7840;42.702;23.296;2022-08-21T10:15:13;8.93;;;5.20;;
15476;SDS011;7840;42.702;23.296;2022-08-21T10:17:49;10.43;;;5.40;;
15476;SDS011;7840;42.702;23.296;2022-08-21T10:20:29;12.13;;;5.82;;
15476;SDS011;7840;42.702;23.296;2022-08-21T10:23:07;9.48;;;5.03;;
15476;SDS011;7840;42.702;23.296;2022-08-21T10:25:55;7.75;;;5.35;;
15476;SDS011;7840;42.702;23.296;2022-08-21T10:28:29;13.75;;;5.60;;
15476;SDS011;7840;42.702;23.296;2022-08-21T10:31:03;10.85;;;5.60;;
15476;SDS011;7840;42.702;23.296;2022-08-21T10:33:42;9.90;;;5.03;;
15476;SDS011;7840;42.702;23.296;2022-08-21T10:36:18;9.30;;;5.30;;
15476;SDS011;7840;42.702;23.296;2022-08-21T10:38:59;9.77;;;5.20;;
15476;SDS011;7840;42.702;23.296;2022-08-21T10:41:41;7.47;;;5.47;;
15476;SDS011;7840;42.702;23.296;2022-08-21T10:44:27;8.18;;;5.07;;
15476;SDS011;7840;42.702;23.296;2022-08-21T10:47:04;7.35;;;4.97;;
15476;SDS011;7840;42.702;23.296;2022-08-21T10:49:36;13.20;;;6.15;;
15476;SDS011;7840;42.702;23.296;2022-08-21T10:52:14;9.07;;;5.25;;
15476;SDS011;7840;42.702;23.296;2022-08-21T10:54:56;9.05;;;5.28;;
15476;SDS011;7840;42.702;23.296;2022-08-21T10:57:31;8.30;;;5.55;;
15476;SDS011;7840;42.702;23.296;2022-08-21T11:00:07;10.13;;;5.47;;
15476;SDS011;7840;42.702;23.296;2022-08-21T11:02:39;9.55;;;5.00;;
15476;SDS011;7840;42.702;23.296;2022-08-21T11:05:14;6.97;;;5.07;;
15476;SDS011;7840;42.702;23.296;2022-08-21T11:07:50;6.05;;;5.35;;
15476;SDS011;7840;42.702;23.296;2022-08-21T11:10:22;8.75;;;5.38;;
15476;SDS011;7840;42.702;23.296;2022-08-21T11:12:52;6.82;;;5.07;;
15476;SDS011;7840;42.702;23.296;2022-08-21T11:15:27;7.05;;;5.63;;
15476;SDS011;7840;42.702;23.296;2022-08-21T11:18:04;9.00;;;5.28;;
15476;SDS011;7840;42.702;23.296;2022-08-21T11:20:46;7.50;;;5.05;;
15476;SDS011;7840;42.702;23.296;2022-08-21T11:23:21;11.45;;;5.72;;
15476;SDS011;7840;42.702;23.296;2022-08-21T11:25:53;9.02;;;5.50;;
15476;SDS011;7840;42.702;23.296;2022-08-21T11:28:28;5.72;;;5.13;;
15476;SDS011;7840;42.702;23.296;2022-08-21T11:31:02;8.10;;;5.53;;
15476;SDS011;7840;42.702;23.296;2022-08-21T11:33:45;7.75;;;5.15;;
15476;SDS011;7840;42.702;23.296;2022-08-21T11:36:23;7.13;;;5.13;;
15476;SDS011;7840;42.702;23.296;2022-08-21T11:39:02;8.98;;;4.97;;
15476;SDS011;7840;42.702;23.296;2022-08-21T11:41:42;7.43;;;4.80;;
15476;SDS011;7840;42.702;23.296;2022-08-21T11:44:17;6.78;;;5.20;;
15476;SDS011;7840;42.702;23.296;2022-08-21T11:47:15;6.22;;;4.93;;
15476;SDS011;7840;42.702;23.296;2022-08-21T11:49:59;8.48;;;4.47;;
15476;SDS011;7840;42.702;23.296;2022-08-21T11:52:33;6.25;;;4.68;;
15476;SDS011;7840;42.702;23.296;2022-08-21T11:55:10;7.35;;;4.57;;
15476;SDS011;7840;42.702;23.296;2022-08-21T11:57:44;5.28;;;4.45;;
15476;SDS011;7840;42.702;23.296;2022-08-21T12:00:19;5.35;;;4.28;;
15476;SDS011;7840;42.702;23.296;2022-08-21T12:02:55;6.93;;;4.90;;
15476;SDS011;7840;42.702;23.296;2022-08-21T12:05:33;4.75;;;4.22;;
15476;SDS011;7840;42.702;23.296;2022-08-21T12:08:04;9.93;;;4.38;;
15476;SDS011;7840;42.702;23.296;2022-08-21T12:10:41;7.85;;;4.47;;
15476;SDS011;7840;42.702;23.296;2022-08-21T12:13:52;10.30;;;4.97;;
15476;SDS011;7840;42.702;23.296;2022-08-21T12:16:28;6.38;;;4.45;;
15476;SDS011;7840;42.702;23.296;2022-08-21T12:19:27;10.02;;;4.80;;
15476;SDS011;7840;42.702;23.296;2022-08-21T12:21:58;9.18;;;4.85;;
15476;SDS011;7840;42.702;23.296;2022-08-21T12:24:35;12.07;;;5.18;;
15476;SDS011;7840;42.702;23.296;2022-08-21T12:27:18;5.93;;;3.92;;
15476;SDS011;7840;42.702;23.296;2022-08-21T12:29:52;5.65;;;4.47;;
15476;SDS011;7840;42.702;23.296;2022-08-21T12:32:26;10.73;;;5.22;;
15476;SDS011;7840;42.702;23.296;2022-08-21T12:34:57;8.93;;;5.30;;
15476;SDS011;7840;42.702;23.296;2022-08-21T12:37:34;7.57;;;4.88;;
15476;SDS011;7840;42.702;23.296;2022-08-21T12:40:10;6.50;;;4.90;;
15476;SDS011;7840;42.702;23.296;2022-08-21T12:42:46;7.20;;;5.20;;
15476;SDS011;7840;42.702;23.296;2022-08-21T12:45:20;6.32;;;4.72;;
15476;SDS011;7840;42.702;23.296;2022-08-21T12:47:58;6.10;;;5.20;;
15476;SDS011;7840;42.702;23.296;2022-08-21T12:50:29;5.90;;;5.30;;
15476;SDS011;7840;42.702;23.296;2022-08-21T12:53:19;7.35;;;5.45;;
15476;SDS011;7840;42.702;23.296;2022-08-21T12:55:57;6.28;;;5.30;;
15476;SDS011;7840;42.702;23.296;2022-08-21T12:58:30;6.07;;;4.80;;
15476;SDS011;7840;42.702;23.296;2022-08-21T13:00:59;8.30;;;5.80;;
15476;SDS011;7840;42.702;23.296;2022-08-21T13:03:30;9.23;;;4.93;;
15476;SDS011;7840;42.702;23.296;2022-08-21T13:06:02;8.60;;;5.57;;
15476;SDS011;7840;42.702;23.296;2022-08-21T13:08:31;6.00;;;5.05;;
15476;SDS011;7840;42.702;23.296;2022-08-21T13:11:03;7.60;;;4.88;;
15476;SDS011;7840;42.702;23.296;2022-08-21T13:13:45;7.13;;;4.85;;
15476;SDS011;7840;42.702;23.296;2022-08-21T13:16:18;7.95;;;4.90;;
15476;SDS011;7840;42.702;23.296;2022-08-21T13:18:55;7.90;;;5.20;;
15476;SDS011;7840;42.702;23.296;2022-08-21T13:21:21;8.25;;;5.22;;
15476;SDS011;7840;42.702;23.296;2022-08-21T13:23:53;7.68;;;4.80;;
15476;SDS011;7840;42.702;23.296;2022-08-21T13:26:21;8.07;;;4.90;;
15476;SDS011;7840;42.702;23.296;2022-08-21T13:28:50;7.20;;;4.65;;
15476;SDS011;7840;42.702;23.296;2022-08-21T13:31:20;9.77;;;5.13;;
15476;SDS011;7840;42.702;23.296;2022-08-21T13:33:51;6.50;;;4.53;;
15476;SDS011;7840;42.702;23.296;2022-08-21T13:36:23;8.32;;;4.80;;
15476;SDS011;7840;42.702;23.296;2022-08-21T13:39:04;7.18;;;4.45;;
15476;SDS011;7840;42.702;23.296;2022-08-21T13:41:37;7.78;;;4.70;;
15476;SDS011;7840;42.702;23.296;2022-08-21T13:44:15;6.90;;;4.57;;
15476;SDS011;7840;42.702;23.296;2022-08-21T13:46:46;7.20;;;4.82;;
15476;SDS011;7840;42.702;23.296;2022-08-21T13:49:16;7.78;;;4.70;;
15476;SDS011;7840;42.702;23.296;2022-08-21T13:51:47;7.05;;;4.57;;
15476;SDS011;7840;42.702;23.296;2022-08-21T13:54:24;12.43;;;4.38;;
15476;SDS011;7840;42.702;23.296;2022-08-21T13:56:55;7.60;;;4.20;;
15476;SDS011;7840;42.702;23.296;2022-08-21T13:59:28;8.00;;;4.70;;
15476;SDS011;7840;42.702;23.296;2022-08-21T14:01:57;10.95;;;4.95;;
15476;SDS011;7840;42.702;23.296;2022-08-21T14:04:33;6.78;;;4.13;;
15476;SDS011;7840;42.702;23.296;2022-08-21T14:07:02;5.65;;;4.30;;
15476;SDS011;7840;42.702;23.296;2022-08-21T14:09:43;7.07;;;4.45;;
15476;SDS011;7840;42.702;23.296;2022-08-21T14:12:14;7.05;;;4.13;;
15476;SDS011;7840;42.702;23.296;2022-08-21T14:14:54;7.28;;;4.40;;
15476;SDS011;7840;42.702;23.296;2022-08-21T14:17:27;5.82;;;4.10;;
15476;SDS011;7840;42.702;23.296;2022-08-21T14:19:56;7.07;;;4.43;;
15476;SDS011;7840;42.702;23.296;2022-08-21T14:22:27;7.07;;;4.15;;
15476;SDS011;7840;42.702;23.296;2022-08-21T14:25:01;7.90;;;4.50;;
15476;SDS011;7840;42.702;23.296;2022-08-21T14:27:31;8.27;;;4.22;;
15476;SDS011;7840;42.702;23.296;2022-08-21T14:30:04;10.98;;;4.28;;
15476;SDS011;7840;42.702;23.296;2022-08-21T14:32:39;6.70;;;4.57;;
15476;SDS011;7840;42.702;23.296;2022-08-21T14:35:07;9.88;;;4.57;;
15476;SDS011;7840;42.702;23.296;2022-08-21T14:37:36;4.68;;;4.28;;
15476;SDS011;7840;42.702;23.296;2022-08-21T14:40:04;12.45;;;5.07;;
15476;SDS011;7840;42.702;23.296;2022-08-21T14:42:32;5.13;;;4.40;;
15476;SDS011;7840;42.702;23.296;2022-08-21T14:45:13;7.55;;;5.28;;
15476;SDS011;7840;42.702;23.296;2022-08-21T14:47:42;8.02;;;4.78;;
15476;SDS011;7840;42.702;23.296;2022-08-21T14:50:10;6.93;;;5.30;;
15476;SDS011;7840;42.702;23.296;2022-08-21T14:52:39;8.57;;;5.25;;
15476;SDS011;7840;42.702;23.296;2022-08-21T14:55:08;5.60;;;4.95;;
15476;SDS011;7840;42.702;23.296;2022-08-21T14:57:39;8.23;;;5.82;;